Etusivu
METAR-TAF:

METAR-TAF

Lentoasemat :

Safford, Arizona, Yhdysvallat

Leveyspiiri: 32-51-26N, Pituuspiiri: 109-38-08W, korkeus merenpinnasta: 968 m

Tämänhetkinen sää

Tämä raportti tehtiin 34 minuuttia sitten, kello 16.51 UTC
Tuuli 8 kn kaakosta
Lämpötila 12°C
Kosteus 35%
Ilmanpaine 1021 hPa
Näkyvyys: 16.1 km
selkeää

METAR: KSAD 131651Z AUTO 13008KT 10SM CLR 12/M03 A3015 RMK AO2 SLP194 T01171028

Aika: 10:25 (17:25 UTC)


TAF: puuttuu

Säähavainnot ja -ennusteet yli 4000 lentoasemalta (METAR- ja TAF-raportit).

Käytössä olevat sääasemat on merkitty karttaan keltaisilla ja punaisilla pisteillä.

Aseta hiiri pisteen päälle nähdäksesi sääaseman nimen.

Klikkaa sitten nähdäksesi säähavainnot ja -ennusteet.

Kartan vaihtaminen: klikkaa mustalla rastilla varustettuja vihreitä pisteitä, niin voit zoomata sisään; viivalla varustettua vihreää pistettä, niin voit zoomata ulos tai vihreitä nuolia, niin pääset viereisille kartoille.


METAR-TAF: